Time;durP1;ratioP1;P1;durP2;ratioP2;P2;SDS_P1;SDS_P2;PMS_P1;PMS_P2;Temp;Humidity;BMP_temperature;BMP_pressure;BME280_temperature;BME280_humidity;BME280_pressure;Samples;Min_cycle;Max_cycle;Signal;HPM_P1;HPM_P2
2022/03/19 00:01:57;;;;;;;23.30;13.40;;;;;;;3.23;63.60;103675.44;4919004;29;20095;-72
2022/03/19 00:04:42;;;;;;;22.33;13.43;;;;;;;3.30;66.17;103681.88;4919508;29;20506;-70
2022/03/19 00:07:29;;;;;;;25.40;14.50;;;;;;;3.09;71.33;103676.31;4919537;29;20106;-71
2022/03/19 00:10:16;;;;;;;24.23;14.20;;;;;;;3.07;72.67;103675.34;4919497;29;20060;-72
2022/03/19 00:13:02;;;;;;;27.48;14.82;;;;;;;2.92;73.33;103668.31;4918518;29;20529;-72
2022/03/19 00:15:48;;;;;;;26.48;13.30;;;;;;;2.84;71.71;103665.28;4919281;29;20038;-72
2022/03/19 00:18:34;;;;;;;21.95;13.23;;;;;;;2.96;69.74;103662.53;4905182;29;20023;-71
2022/03/19 00:21:20;;;;;;;23.05;13.02;;;;;;;2.90;71.06;103665.63;4919504;29;20032;-72
2022/03/19 00:24:06;;;;;;;26.60;13.50;;;;;;;3.19;69.64;103665.69;4919183;29;20051;-72
2022/03/19 00:26:52;;;;;;;23.45;13.43;;;;;;;3.00;71.11;103662.81;4923007;29;20401;-72
2022/03/19 00:29:37;;;;;;;23.42;13.85;;;;;;;2.57;75.28;103673.06;4909009;29;20039;-73
2022/03/19 00:32:23;;;;;;;29.85;13.68;;;;;;;2.65;78.48;103667.53;4908861;29;20058;-72
2022/03/19 00:35:09;;;;;;;26.95;14.43;;;;;;;2.72;78.90;103659.38;4922510;29;20032;-71
2022/03/19 00:37:55;;;;;;;27.70;14.55;;;;;;;2.94;79.84;103670.19;4909089;29;20024;-72
2022/03/19 00:40:41;;;;;;;25.88;14.48;;;;;;;2.80;80.24;103665.00;4923048;29;20520;-72
2022/03/19 00:43:27;;;;;;;27.23;15.10;;;;;;;2.55;85.70;103666.88;4908713;29;20074;-71
2022/03/19 00:46:15;;;;;;;26.23;15.88;;;;;;;2.85;86.63;103668.78;4922298;29;20028;-72
2022/03/19 00:49:01;;;;;;;26.08;16.00;;;;;;;2.93;87.14;103664.97;4908797;29;20056;-72
2022/03/19 00:51:47;;;;;;;29.80;15.05;;;;;;;2.77;89.94;103664.84;4922397;29;20476;-72
2022/03/19 00:54:32;;;;;;;27.33;15.70;;;;;;;2.99;88.08;103665.31;4922196;29;20032;-72
2022/03/19 00:57:18;;;;;;;24.20;14.25;;;;;;;2.70;89.82;103668.72;4922105;29;20471;-71
2022/03/19 01:00:04;;;;;;;28.38;15.15;;;;;;;2.50;91.08;103661.44;4908340;29;20082;-71
2022/03/19 01:02:51;;;;;;;23.83;14.20;;;;;;;2.70;88.09;103660.06;4922020;29;20035;-72
2022/03/19 01:05:37;;;;;;;24.98;14.70;;;;;;;2.69;86.98;103650.53;4921784;29;20034;-72
2022/03/19 01:08:22;;;;;;;26.55;14.65;;;;;;;2.39;91.08;103654.72;4921838;29;20034;-71
2022/03/19 01:11:08;;;;;;;27.13;14.10;;;;;;;2.73;88.24;103657.69;4921852;29;20036;-71
2022/03/19 01:13:55;;;;;;;25.95;14.98;;;;;;;2.56;89.70;103655.72;4922247;29;20137;-71
2022/03/19 01:16:41;;;;;;;29.02;16.10;;;;;;;2.41;85.93;103650.50;4921818;29;20032;-72
2022/03/19 01:22:33;;;;;;;27.88;16.13;;;;;;;2.26;86.76;103656.44;4921542;29;20028;-72
2022/03/19 01:25:19;;;;;;;28.15;16.50;;;;;;;2.05;88.79;103648.19;4922081;29;20125;-72
2022/03/19 01:28:05;;;;;;;32.85;18.20;;;;;;;2.40;85.55;103646.13;4908474;29;20039;-71
2022/03/19 01:30:51;;;;;;;27.17;15.13;;;;;;;2.36;84.46;103644.16;4908037;29;20051;-72
2022/03/19 01:33:37;;;;;;;28.50;16.08;;;;;;;2.39;84.90;103653.81;4921390;29;20032;-71
2022/03/19 01:36:23;;;;;;;31.73;16.20;;;;;;;2.13;88.45;103649.56;4906878;29;20393;-72
2022/03/19 01:39:09;;;;;;;28.27;16.45;;;;;;;2.29;86.86;103648.88;4922000;29;20024;-71
2022/03/19 01:41:55;;;;;;;28.85;15.95;;;;;;;2.41;84.01;103642.75;4921820;29;20060;-73
2022/03/19 01:44:40;;;;;;;27.75;16.38;;;;;;;2.25;84.76;103639.13;4907763;29;20068;-72
2022/03/19 01:47:28;;;;;;;33.53;16.77;;;;;;;1.79;89.15;103639.59;4920921;29;20354;-72
2022/03/19 01:50:15;;;;;;;29.50;16.65;;;;;;;1.59;90.50;103634.81;4921308;29;20368;-71
2022/03/19 01:53:00;;;;;;;39.95;18.13;;;;;;;2.05;86.42;103640.44;4921515;29;20111;-72
2022/03/19 01:55:46;;;;;;;30.48;15.98;;;;;;;2.31;83.32;103636.91;4921304;29;20095;-72
2022/03/19 01:58:32;;;;;;;27.90;16.35;;;;;;;1.87;84.44;103643.56;4920858;29;20027;-72
2022/03/19 02:01:18;;;;;;;27.40;15.63;;;;;;;1.90;85.07;103636.91;4907067;29;20035;-72
2022/03/19 02:04:05;;;;;;;32.67;17.25;;;;;;;1.97;82.93;103640.78;4921208;29;20107;-72
2022/03/19 02:06:51;;;;;;;32.00;17.50;;;;;;;2.15;80.94;103648.00;4907040;29;20055;-72
2022/03/19 02:09:39;;;;;;;35.10;17.88;;;;;;;1.71;83.49;103644.28;4921187;29;20441;-72
2022/03/19 02:12:25;;;;;;;29.80;16.63;;;;;;;1.70;82.48;103642.50;4920087;29;20052;-71
2022/03/19 02:15:13;;;;;;;32.53;17.38;;;;;;;1.48;80.77;103634.13;4920451;29;20067;-72
2022/03/19 02:17:58;;;;;;;32.80;17.77;;;;;;;1.63;80.21;103637.72;4920425;29;20477;-72
2022/03/19 02:20:44;;;;;;;30.55;16.17;;;;;;;1.97;78.13;103631.31;4907485;29;20036;-71
2022/03/19 02:26:34;;;;;;;36.30;18.42;;;;;;;1.65;79.87;103627.47;4920908;29;20036;-71
2022/03/19 02:29:20;;;;;;;35.90;18.48;;;;;;;1.64;78.13;103620.53;4920402;29;20028;-71
2022/03/19 02:32:07;;;;;;;34.42;17.85;;;;;;;1.53;79.77;103630.13;4920971;29;20028;-71
2022/03/19 02:34:54;;;;;;;33.92;17.80;;;;;;;1.41;81.31;103637.09;4920183;29;20050;-72
2022/03/19 02:37:43;;;;;;;35.80;16.98;;;;;;;1.26;83.36;103627.44;4921121;29;20032;-71
2022/03/19 02:40:28;;;;;;;28.17;16.58;;;;;;;1.64;80.31;103638.63;4920303;29;20051;-72
2022/03/19 02:43:14;;;;;;;28.77;16.73;;;;;;;1.34;82.61;103632.34;4920363;29;20370;-71
2022/03/19 02:46:00;;;;;;;27.92;16.20;;;;;;;1.44;81.63;103629.56;4920433;29;20064;-72
2022/03/19 02:48:46;;;;;;;36.67;15.98;;;;;;;1.69;80.35;103629.47;4920092;29;20139;-71
2022/03/19 02:51:36;;;;;;;30.00;15.98;;;;;;;1.33;82.44;103630.53;4920218;29;20036;-72
2022/03/19 02:54:25;;;;;;;31.05;16.05;;;;;;;1.38;82.73;103636.00;4919914;29;20115;-72
2022/03/19 02:57:10;;;;;;;29.17;16.42;;;;;;;1.64;82.39;103634.31;4925316;29;20104;-71
2022/03/19 02:59:56;;;;;;;31.58;16.45;;;;;;;1.24;84.85;103629.94;4927061;29;20024;-72
2022/03/19 03:02:42;;;;;;;31.52;17.90;;;;;;;1.40;84.23;103632.72;4919813;29;20071;-72
2022/03/19 03:05:28;;;;;;;34.05;19.65;;;;;;;1.35;85.91;103626.38;4905819;29;20040;-71
2022/03/19 03:08:15;;;;;;;44.10;21.70;;;;;;;1.17;87.37;103632.00;4920618;29;20350;-72
2022/03/19 03:11:01;;;;;;;38.55;21.13;;;;;;;1.08;89.43;103632.28;4905781;29;20046;-71
2022/03/19 03:13:46;;;;;;;32.08;17.60;;;;;;;1.04;92.12;103625.13;4905517;29;20079;-71
2022/03/19 03:16:33;;;;;;;28.23;15.57;;;;;;;1.24;90.54;103621.31;4919356;29;20028;-71
2022/03/19 03:19:19;;;;;;;34.25;15.93;;;;;;;1.16;91.62;103625.94;4919697;29;20036;-72
2022/03/19 03:22:09;;;;;;;28.25;15.18;;;;;;;1.17;91.90;103630.34;4918829;29;20032;-71
2022/03/19 03:24:55;;;;;;;25.77;15.20;;;;;;;1.07;93.37;103625.34;4918597;29;20501;-71
2022/03/19 03:27:41;;;;;;;28.80;15.80;;;;;;;0.99;93.88;103620.44;4905135;29;20470;-72
2022/03/19 03:30:27;;;;;;;27.45;15.45;;;;;;;1.14;93.83;103621.47;4919876;29;20029;-71
2022/03/19 03:33:12;;;;;;;32.38;16.52;;;;;;;1.24;93.07;103624.75;4919971;29;20028;-71
2022/03/19 03:35:59;;;;;;;26.75;15.43;;;;;;;1.14;95.70;103631.81;4919322;29;20044;-72
2022/03/19 03:38:45;;;;;;;28.98;15.80;;;;;;;1.02;97.70;103629.31;4919370;29;20071;-71
2022/03/19 03:41:30;;;;;;;26.50;14.60;;;;;;;0.60;100.00;103628.94;4905166;29;20035;-71
2022/03/19 03:44:16;;;;;;;26.83;15.48;;;;;;;0.11;100.00;103628.03;4904689;29;20377;-72
2022/03/19 03:47:02;;;;;;;28.58;15.48;;;;;;;-0.19;100.00;103625.03;4918839;29;20504;-71
2022/03/19 03:49:48;;;;;;;27.38;14.55;;;;;;;-0.16;100.00;103622.69;4919438;29;20028;-72
2022/03/19 03:52:33;;;;;;;30.02;16.45;;;;;;;0.21;100.00;103633.03;4918360;29;20028;-71
2022/03/19 03:55:20;;;;;;;30.83;15.65;;;;;;;0.23;100.00;103628.91;4905173;29;20039;-72
2022/03/19 03:58:06;;;;;;;31.30;16.27;;;;;;;-0.17;100.00;103632.88;4919060;29;20131;-72
2022/03/19 04:00:52;;;;;;;29.52;17.02;;;;;;;0.01;100.00;103642.81;4918429;29;20039;-72
2022/03/19 04:03:38;;;;;;;30.05;16.70;;;;;;;0.15;100.00;103641.22;4905846;29;20394;-72
2022/03/19 04:06:24;;;;;;;29.95;17.10;;;;;;;0.23;100.00;103641.78;4904371;29;20035;-71
2022/03/19 04:09:09;;;;;;;31.60;17.00;;;;;;;0.28;100.00;103641.28;4918800;29;20126;-71
2022/03/19 04:11:55;;;;;;;30.80;16.17;;;;;;;0.08;100.00;103638.13;4918672;29;20377;-72
2022/03/19 04:14:41;;;;;;;35.20;15.95;;;;;;;0.02;100.00;103636.00;4918640;29;20070;-72
2022/03/19 04:17:27;;;;;;;29.45;16.13;;;;;;;-0.05;100.00;103646.66;4905376;29;20466;-71
2022/03/19 04:20:13;;;;;;;30.17;15.70;;;;;;;-0.09;100.00;103647.22;4904925;29;20035;-71
2022/03/19 04:22:59;;;;;;;27.23;15.05;;;;;;;0.03;100.00;103665.25;4905297;29;20036;-72
2022/03/19 04:25:44;;;;;;;27.45;14.32;;;;;;;-0.03;100.00;103655.41;4918832;29;20496;-72
2022/03/19 04:28:30;;;;;;;26.77;14.57;;;;;;;-0.02;100.00;103645.19;4904751;29;20036;-71
2022/03/19 04:31:16;;;;;;;28.88;14.50;;;;;;;0.29;100.00;103649.94;4918838;29;20055;-71
2022/03/19 04:34:02;;;;;;;33.03;14.65;;;;;;;0.35;100.00;103653.84;4918380;29;20031;-72
2022/03/19 04:36:48;;;;;;;24.52;14.60;;;;;;;0.46;100.00;103665.81;4919128;29;20107;-72
2022/03/19 04:39:34;;;;;;;27.67;14.52;;;;;;;0.26;100.00;103665.19;4904730;29;20036;-72
2022/03/19 04:42:19;;;;;;;26.88;13.93;;;;;;;0.39;100.00;103668.72;4918571;29;20079;-72
2022/03/19 04:45:06;;;;;;;27.00;14.57;;;;;;;0.45;100.00;103666.59;4918830;29;20028;-71
2022/03/19 04:47:52;;;;;;;31.52;16.33;;;;;;;0.29;100.00;103665.41;4918263;29;20457;-72
2022/03/19 04:50:40;;;;;;;35.33;18.52;;;;;;;0.39;100.00;103667.88;4918883;29;20047;-71
2022/03/19 04:53:26;;;;;;;33.05;17.55;;;;;;;0.09;100.00;103671.75;4904394;29;20028;-72
2022/03/19 04:56:12;;;;;;;29.75;16.67;;;;;;;0.28;100.00;103671.34;4918898;29;20110;-71
2022/03/19 04:58:59;;;;;;;30.00;17.80;;;;;;;0.37;100.00;103672.91;4905294;29;20028;-72
2022/03/19 05:01:45;;;;;;;35.92;19.50;;;;;;;0.46;100.00;103668.38;4904911;29;20039;-71
2022/03/19 05:04:31;;;;;;;32.00;18.30;;;;;;;0.26;100.00;103671.25;4918711;29;20094;-71
2022/03/19 05:07:17;;;;;;;34.15;18.20;;;;;;;0.20;100.00;103675.06;4918780;29;20038;-72
2022/03/19 05:13:11;;;;;;;32.95;17.63;;;;;;;0.31;100.00;103682.78;4920629;29;20134;-71
2022/03/19 05:15:57;;;;;;;32.97;17.95;;;;;;;0.24;100.00;103682.25;4921988;29;20082;-72
2022/03/19 05:18:43;;;;;;;28.23;16.77;;;;;;;0.31;100.00;103687.06;4922737;29;20059;-72
2022/03/19 05:21:28;;;;;;;28.90;15.52;;;;;;;0.31;100.00;103685.34;4922029;29;20059;-73
2022/03/19 05:24:14;;;;;;;28.08;16.00;;;;;;;0.50;100.00;103682.38;4921420;29;20032;-72
2022/03/19 05:27:00;;;;;;;25.45;14.82;;;;;;;0.52;100.00;103689.44;4922195;29;20028;-72
2022/03/19 05:29:46;;;;;;;26.17;14.75;;;;;;;0.56;100.00;103686.28;4922547;29;20381;-71
2022/03/19 05:32:31;;;;;;;29.55;16.30;;;;;;;0.72;100.00;103685.69;4908230;29;20358;-72
2022/03/19 05:35:18;;;;;;;40.50;20.77;;;;;;;0.64;100.00;103698.03;4920698;29;20457;-72
2022/03/19 05:38:05;;;;;;;36.22;20.25;;;;;;;0.84;100.00;103692.56;4922313;29;20043;-73
2022/03/19 05:40:51;;;;;;;41.83;21.48;;;;;;;0.37;100.00;103700.38;4921549;29;20094;-72
2022/03/19 05:43:37;;;;;;;36.30;22.02;;;;;;;0.61;100.00;103700.41;4921370;29;20035;-72
2022/03/19 05:46:22;;;;;;;38.80;21.50;;;;;;;0.35;100.00;103701.97;4921590;29;20035;-71
2022/03/19 05:49:08;;;;;;;40.83;22.08;;;;;;;0.62;100.00;103702.19;4921187;29;20031;-71
2022/03/19 05:51:56;;;;;;;37.92;22.60;;;;;;;0.67;100.00;103697.34;4921086;29;20035;-71
2022/03/19 05:54:42;;;;;;;38.63;20.90;;;;;;;0.71;100.00;103702.84;4907614;29;20035;-73
2022/03/19 05:57:28;;;;;;;36.33;20.25;;;;;;;0.83;100.00;103701.09;4920903;29;20032;-73
2022/03/19 06:00:14;;;;;;;38.50;21.55;;;;;;;0.89;100.00;103704.13;4907602;29;20028;-73
2022/03/19 06:02:59;;;;;;;34.35;20.25;;;;;;;1.01;100.00;103699.81;4907697;29;20031;-73
2022/03/19 06:05:45;;;;;;;43.78;22.65;;;;;;;1.01;100.00;103692.06;4920586;29;20465;-74
2022/03/19 06:08:31;;;;;;;39.80;21.63;;;;;;;0.96;100.00;103700.28;4906691;29;20354;-74
2022/03/19 06:11:17;;;;;;;36.03;21.20;;;;;;;0.65;100.00;103697.25;4920539;29;20028;-74
2022/03/19 06:14:03;;;;;;;35.70;20.38;;;;;;;1.26;100.00;103704.94;4907346;29;20119;-73
2022/03/19 06:16:51;;;;;;;32.75;19.13;;;;;;;1.06;100.00;103698.41;4919961;29;20056;-73
2022/03/19 06:19:37;;;;;;;36.10;18.42;;;;;;;1.26;100.00;103699.75;4919384;29;20119;-74
2022/03/19 06:22:23;;;;;;;33.45;18.30;;;;;;;1.30;100.00;103702.66;4920347;29;20024;-73
2022/03/19 06:25:09;;;;;;;27.27;15.75;;;;;;;1.57;100.00;103707.06;4920400;29;20495;-73
2022/03/19 06:27:54;;;;;;;27.02;15.13;;;;;;;1.48;100.00;103710.75;4920203;29;20111;-73
2022/03/19 06:30:40;;;;;;;26.90;16.38;;;;;;;1.69;98.00;103700.13;4920622;29;20119;-72
2022/03/19 06:33:26;;;;;;;29.98;16.40;;;;;;;1.73;96.20;103698.66;4906534;29;20028;-73
2022/03/19 06:39:16;;;;;;;27.92;15.23;;;;;;;1.70;90.06;103708.78;4920372;29;20031;-73
2022/03/19 06:42:02;;;;;;;26.77;14.55;;;;;;;1.78;83.73;103723.09;4905580;29;20120;-74
2022/03/19 06:44:49;;;;;;;24.33;14.25;;;;;;;1.83;83.60;103724.28;4920721;29;20048;-73
2022/03/19 06:47:34;;;;;;;25.20;15.00;;;;;;;1.91;84.09;103724.00;4918851;29;20028;-73
2022/03/19 06:50:20;;;;;;;29.00;14.82;;;;;;;1.90;85.97;103727.41;4905658;29;20119;-75
2022/03/19 06:53:06;;;;;;;24.85;14.27;;;;;;;2.05;85.67;103725.78;4905581;29;20385;-72
2022/03/19 06:55:52;;;;;;;25.77;14.60;;;;;;;2.50;82.54;103731.31;4920162;29;20031;-73
2022/03/19 06:58:38;;;;;;;26.02;14.43;;;;;;;2.98;80.43;103736.03;4919661;29;20024;-73
2022/03/19 07:01:24;;;;;;;19.65;12.77;;;;;;;3.16;77.12;103729.38;4920280;29;20032;-74
2022/03/19 07:04:09;;;;;;;22.23;13.10;;;;;;;3.64;72.68;103737.47;4906170;29;20031;-74
2022/03/19 07:06:55;;;;;;;20.90;12.82;;;;;;;3.15;67.72;103727.59;4905721;29;20346;-73
2022/03/19 07:09:41;;;;;;;21.05;12.23;;;;;;;3.15;67.06;103728.50;4907111;29;20032;-71
2022/03/19 07:12:26;;;;;;;23.35;12.57;;;;;;;3.03;66.59;103730.34;4920093;29;20107;-72
2022/03/19 07:15:24;;;;;;;29.17;16.75;;;;;;;2.98;67.59;103730.88;4919484;29;20512;-73
2022/03/19 07:18:10;;;;;;;21.88;13.38;;;;;;;3.25;65.55;103733.41;4919881;29;20087;-74
2022/03/19 07:20:56;;;;;;;21.25;13.23;;;;;;;3.35;65.52;103730.59;4920034;29;20160;-75
2022/03/19 07:23:42;;;;;;;22.38;12.88;;;;;;;3.24;64.71;103735.91;4920459;28;20449;-74
2022/03/19 07:26:32;;;;;;;23.17;13.10;;;;;;;2.59;69.01;103739.66;4919972;29;20064;-73
2022/03/19 07:29:20;;;;;;;27.80;14.20;;;;;;;3.73;66.89;103736.31;4919874;29;20031;-74
2022/03/19 07:32:06;;;;;;;27.50;14.13;;;;;;;3.59;66.89;103744.09;4920736;28;20453;-74
2022/03/19 07:34:52;;;;;;;20.42;12.40;;;;;;;3.42;66.47;103735.31;4919636;28;20032;-73
2022/03/19 07:37:37;;;;;;;22.52;13.57;;;;;;;3.83;65.18;103732.56;4920225;28;20024;-73
2022/03/19 07:43:30;;;;;;;24.27;14.02;;;;;;;3.71;65.01;103743.13;4919883;29;20473;-73
2022/03/19 07:46:16;;;;;;;25.77;13.75;;;;;;;4.22;63.99;103740.88;4920289;28;20040;-75
2022/03/19 07:49:03;;;;;;;28.73;14.68;;;;;;;4.25;64.47;103733.28;4919689;29;20032;-73
2022/03/19 07:51:55;;;;;;;21.35;13.05;;;;;;;4.24;63.24;103736.69;4919683;29;20103;-73
2022/03/19 07:54:40;;;;;;;19.88;12.85;;;;;;;4.54;61.72;103738.38;4905962;29;20072;-73
2022/03/19 07:57:26;;;;;;;17.45;10.65;;;;;;;4.02;59.12;103744.06;4919913;29;20136;-73
2022/03/19 08:00:13;;;;;;;14.65;9.90;;;;;;;3.62;59.57;103745.16;4919806;28;20052;-73
2022/03/19 08:02:58;;;;;;;15.15;9.25;;;;;;;3.64;59.93;103740.06;4919351;29;20095;-73
2022/03/19 08:05:44;;;;;;;17.67;9.88;;;;;;;3.78;59.29;103742.66;4919143;29;20036;-73
2022/03/19 08:08:30;;;;;;;22.98;11.52;;;;;;;4.62;58.48;103734.50;4919772;29;20031;-73
2022/03/19 08:11:16;;;;;;;22.48;11.63;;;;;;;4.91;57.95;103736.06;4919267;29;20059;-74
2022/03/19 08:14:03;;;;;;;18.25;10.60;;;;;;;5.20;56.96;103735.91;4918921;29;20056;-73
2022/03/19 08:16:49;;;;;;;17.33;10.80;;;;;;;5.26;56.55;103738.81;4918669;29;20028;-73
2022/03/19 08:19:34;;;;;;;22.38;11.00;;;;;;;5.79;54.80;103720.72;4918810;29;20362;-73
2022/03/19 08:22:20;;;;;;;17.83;10.82;;;;;;;6.38;52.75;103730.66;4918730;29;20084;-74
2022/03/19 08:25:07;;;;;;;15.30;9.15;;;;;;;5.17;52.25;103739.25;4918918;29;20444;-73
2022/03/19 08:27:54;;;;;;;17.52;10.15;;;;;;;4.86;52.55;103741.00;4904787;29;20365;-73
2022/03/19 08:30:40;;;;;;;13.05;8.50;;;;;;;5.20;51.66;103730.69;4904827;29;20032;-73
2022/03/19 08:33:26;;;;;;;13.27;7.95;;;;;;;5.07;50.44;103731.75;4919320;29;20031;-73
2022/03/19 08:36:11;;;;;;;17.75;8.70;;;;;;;4.97;51.31;103738.97;4905505;29;20032;-73
2022/03/19 08:42:02;;;;;;;14.55;9.23;;;;;;;5.69;49.54;103724.59;4918297;29;20492;-73
2022/03/19 08:44:48;;;;;;;12.60;8.73;;;;;;;5.90;49.62;103715.28;4904618;29;20039;-73
2022/03/19 08:47:34;;;;;;;14.65;9.23;;;;;;;6.11;49.63;103726.72;4920678;29;20024;-73
2022/03/19 08:50:21;;;;;;;14.95;9.18;;;;;;;5.21;49.67;103732.47;4922058;29;20028;-75
2022/03/19 08:53:07;;;;;;;16.60;9.98;;;;;;;4.91;50.91;103726.56;4908886;29;20055;-74
2022/03/19 08:55:52;;;;;;;14.82;9.80;;;;;;;4.37;52.17;103728.78;4923233;28;20024;-74
2022/03/19 08:58:38;;;;;;;19.25;10.00;;;;;;;5.75;50.75;103724.00;4922102;29;20075;-74
2022/03/19 09:01:24;;;;;;;13.93;9.07;;;;;;;5.89;48.90;103716.09;4908046;29;20039;-73
2022/03/19 09:04:11;;;;;;;14.15;9.00;;;;;;;5.42;48.68;103719.72;4921947;29;20513;-74
2022/03/19 09:06:58;;;;;;;12.55;8.82;;;;;;;5.68;48.54;103732.31;4922264;29;20046;-74
2022/03/19 09:09:44;;;;;;;22.40;8.55;;;;;;;5.57;48.69;103710.06;4922228;29;20032;-74
2022/03/19 09:12:30;;;;;;;15.20;7.88;;;;;;;5.92;48.04;103712.75;4922251;29;20024;-73
2022/03/19 09:15:16;;;;;;;13.00;8.23;;;;;;;6.06;47.26;103709.13;4922977;28;20052;-74
2022/03/19 09:18:05;;;;;;;19.38;7.63;;;;;;;5.54;48.38;103715.13;4922157;29;20024;-74
2022/03/19 09:20:51;;;;;;;16.08;8.20;;;;;;;5.14;49.43;103714.78;4922374;29;20091;-74
2022/03/19 09:23:37;;;;;;;21.92;11.50;;;;;;;6.13;48.91;103709.47;4922036;29;20032;-73
2022/03/19 09:26:22;;;;;;;11.18;7.82;;;;;;;5.66;48.46;103718.34;4921827;29;20032;-74
2022/03/19 09:29:09;;;;;;;11.90;7.65;;;;;;;5.60;48.34;103715.41;4921184;29;20047;-73
2022/03/19 09:31:55;;;;;;;11.98;7.43;;;;;;;6.10;47.70;103713.66;4921724;29;20043;-74
2022/03/19 09:34:41;;;;;;;16.33;7.30;;;;;;;6.32;46.63;103712.16;4920954;29;20028;-73
2022/03/19 09:37:26;;;;;;;14.05;7.47;;;;;;;5.83;46.60;103710.56;4908418;29;20028;-74
2022/03/19 09:40:13;;;;;;;20.85;9.73;;;;;;;6.70;45.84;103709.59;4920752;29;20024;-74
2022/03/19 09:42:59;;;;;;;11.40;6.90;;;;;;;6.14;46.36;103710.38;4907896;29;20020;-74
2022/03/19 09:45:44;;;;;;;12.60;7.40;;;;;;;5.72;46.76;103710.84;4921791;29;20074;-74
2022/03/19 09:48:30;;;;;;;11.80;6.85;;;;;;;5.48;47.08;103719.19;4907055;29;20021;-75
2022/03/19 09:51:17;;;;;;;18.30;7.60;;;;;;;5.63;47.29;103700.88;4921292;29;20028;-74
2022/03/19 09:54:03;;;;;;;26.15;8.00;;;;;;;5.51;47.16;103717.56;4921342;29;20040;-74
2022/03/19 09:56:49;;;;;;;14.73;6.63;;;;;;;6.22;46.92;103706.44;4921101;29;20032;-73
2022/03/19 09:59:37;;;;;;;21.48;11.85;;;;;;;6.44;45.69;103712.72;4921080;29;20035;-73
2022/03/19 10:02:23;;;;;;;11.50;7.07;;;;;;;6.18;46.52;103722.72;4907674;29;20046;-74
2022/03/19 10:11:17;;;;;;;11.30;6.55;;;;;;;4.65;48.31;103713.91;4920822;29;20182;-74
2022/03/19 10:14:09;;;;;;;11.43;6.30;;;;;;;5.66;48.02;103710.53;4919923;29;20129;-74
2022/03/19 10:16:57;;;;;;;8.45;5.70;;;;;;;5.59;47.85;103700.66;4921322;29;20373;-74
2022/03/19 10:19:52;;;;;;;13.32;6.28;;;;;;;5.33;47.11;103710.63;4921680;29;20047;-74
2022/03/19 10:22:43;;;;;;;11.45;6.07;;;;;;;5.52;46.84;103702.03;4920634;29;20429;-74
2022/03/19 10:25:30;;;;;;;14.07;7.30;;;;;;;6.11;46.38;103703.28;4920845;29;20043;-73
2022/03/19 10:28:16;;;;;;;10.75;6.13;;;;;;;6.60;45.67;103698.69;4907443;29;20493;-71
2022/03/19 10:31:03;;;;;;;9.20;6.10;;;;;;;5.82;45.28;103693.19;4921127;29;20028;-73
2022/03/19 10:33:49;;;;;;;11.68;6.35;;;;;;;5.19;47.43;103706.41;4920899;29;20113;-73
2022/03/19 10:36:37;;;;;;;13.02;6.13;;;;;;;5.59;47.14;103692.84;4906949;29;20500;-73
2022/03/19 10:39:26;;;;;;;20.77;6.78;;;;;;;5.88;46.43;103701.31;4921385;28;20036;-73
2022/03/19 10:42:15;;;;;;;9.50;6.20;;;;;;;6.06;45.39;103710.00;4907103;29;20036;-72
2022/03/19 10:45:01;;;;;;;11.90;5.95;;;;;;;5.16;46.41;103706.25;4920955;29;20028;-73
2022/03/19 10:47:47;;;;;;;14.98;6.03;;;;;;;5.85;45.85;103695.03;4920357;29;20153;-72
2022/03/19 10:50:33;;;;;;;13.40;6.35;;;;;;;5.29;45.58;103703.47;4921025;29;20039;-73
2022/03/19 10:53:21;;;;;;;10.68;7.25;;;;;;;5.85;45.62;103695.94;4920421;29;20035;-73
2022/03/19 10:56:07;;;;;;;11.10;6.68;;;;;;;6.67;44.58;103690.34;4920598;29;20036;-72
2022/03/19 10:58:52;;;;;;;12.30;7.90;;;;;;;6.82;44.75;103691.00;4921011;28;20032;-73
2022/03/19 11:01:39;;;;;;;9.05;6.13;;;;;;;6.06;44.64;103694.38;4920561;29;20469;-72
2022/03/19 11:04:27;;;;;;;10.00;6.55;;;;;;;6.23;45.02;103684.78;4920166;29;20445;-72
2022/03/19 11:07:15;;;;;;;11.25;6.82;;;;;;;6.64;44.48;103691.09;4906906;29;20040;-73
2022/03/19 11:10:05;;;;;;;14.55;6.53;;;;;;;6.31;44.02;103683.44;4919843;29;20115;-72
2022/03/19 11:12:54;;;;;;;9.40;6.10;;;;;;;6.13;44.37;103675.63;4919020;29;20036;-73
2022/03/19 11:15:40;;;;;;;11.63;7.43;;;;;;;6.28;44.69;103668.56;4919822;29;20039;-72
2022/03/19 11:18:26;;;;;;;14.50;6.88;;;;;;;6.10;44.72;103672.88;4906544;29;20059;-72
2022/03/19 11:21:14;;;;;;;10.90;7.38;;;;;;;6.18;46.36;103668.06;4920702;28;20040;-73
2022/03/19 11:24:15;;;;;;;11.70;7.00;;;;;;;6.49;44.69;103671.25;4919129;29;20457;-72
2022/03/19 11:27:01;;;;;;;14.90;7.72;;;;;;;6.33;45.69;103676.56;4919410;29;20376;-71
2022/03/19 11:29:46;;;;;;;8.30;6.65;;;;;;;6.04;44.31;103659.59;4919178;29;20028;-72
2022/03/19 11:32:32;;;;;;;9.85;6.30;;;;;;;6.03;45.66;103668.19;4919156;29;20086;-74
2022/03/19 11:35:25;;;;;;;10.77;5.50;;;;;;;5.85;44.34;103667.31;4920267;28;20050;-72
2022/03/19 11:38:20;;;;;;;9.30;5.97;;;;;;;6.81;43.39;103668.38;4906445;29;20035;-72
2022/03/19 11:41:19;;;;;;;9.95;5.95;;;;;;;6.72;43.75;103650.66;4919130;29;20050;-75
2022/03/19 11:44:28;;;;;;;12.77;6.60;;;;;;;7.16;43.13;103648.22;4906453;29;20028;-72
2022/03/19 11:47:16;;;;;;;13.82;6.60;;;;;;;6.58;44.00;103656.94;4906219;29;20028;-72
2022/03/19 11:50:02;;;;;;;11.15;6.63;;;;;;;7.01;42.97;103658.03;4919773;29;20032;-72
2022/03/19 11:52:48;;;;;;;8.82;5.95;;;;;;;6.61;43.08;103648.34;4919554;29;20051;-75
2022/03/19 11:55:36;;;;;;;13.82;6.95;;;;;;;6.44;44.07;103644.09;4906205;29;20362;-74
2022/03/19 11:58:26;;;;;;;17.23;7.65;;;;;;;7.32;42.69;103639.38;4919547;29;20024;-73
2022/03/19 12:01:12;;;;;;;8.60;6.07;;;;;;;6.43;43.18;103647.53;4906607;29;20099;-74
2022/03/19 12:04:04;;;;;;;13.25;6.57;;;;;;;5.07;45.27;103664.19;4919764;29;20050;-73
2022/03/19 12:06:54;;;;;;;11.57;7.15;;;;;;;5.31;46.53;103643.78;4905766;29;20043;-73
2022/03/19 12:09:40;;;;;;;12.52;7.22;;;;;;;5.98;44.86;103643.66;4919187;29;20083;-72
2022/03/19 12:12:26;;;;;;;9.43;6.68;;;;;;;7.19;44.28;103648.38;4919444;29;20056;-75
2022/03/19 12:15:31;;;;;;;9.02;6.03;;;;;;;6.41;44.46;103649.16;4919421;29;20083;-74
2022/03/19 12:18:44;;;;;;;11.15;7.03;;;;;;;6.78;44.17;103632.66;4919147;29;20066;-74
2022/03/19 12:21:34;;;;;;;9.25;6.18;;;;;;;6.28;44.72;103646.81;4908044;29;20091;-74
2022/03/19 12:24:39;;;;;;;10.75;5.93;;;;;;;6.13;44.43;103653.91;4923091;29;20376;-73
2022/03/19 12:27:25;;;;;;;11.15;6.55;;;;;;;4.84;46.14;103646.53;4923457;29;20032;-72
2022/03/19 12:30:11;;;;;;;9.50;5.95;;;;;;;5.46;46.39;103641.03;4908683;29;20028;-75
2022/03/19 12:32:58;;;;;;;10.55;6.35;;;;;;;6.19;45.19;103642.06;4909348;29;20372;-72
2022/03/19 12:35:46;;;;;;;9.68;5.78;;;;;;;6.31;44.86;103634.81;4908931;29;20032;-72
2022/03/19 12:38:33;;;;;;;9.63;5.78;;;;;;;5.91;44.71;103638.09;4922036;29;20059;-73
2022/03/19 12:41:23;;;;;;;9.35;4.80;;;;;;;5.03;44.70;103638.84;4923447;28;20035;-74
2022/03/19 12:44:29;;;;;;;7.03;4.95;;;;;;;6.11;44.29;103626.94;4922874;29;20090;-72
2022/03/19 12:47:16;;;;;;;10.50;5.20;;;;;;;5.67;45.21;103618.69;4922570;29;20102;-73
2022/03/19 12:50:02;;;;;;;10.20;5.60;;;;;;;5.59;45.83;103620.03;4909913;29;20096;-72
2022/03/19 12:52:47;;;;;;;9.23;5.50;;;;;;;5.36;44.73;103619.75;4923023;28;20039;-73
2022/03/19 12:55:33;;;;;;;9.88;4.75;;;;;;;5.62;44.66;103623.66;4922330;29;20406;-72
2022/03/19 12:58:19;;;;;;;8.73;5.03;;;;;;;5.38;44.96;103633.75;4922037;29;20106;-72
2022/03/19 13:01:08;;;;;;;10.57;5.32;;;;;;;6.00;45.00;103615.13;4922591;29;20032;-72
2022/03/19 13:03:56;;;;;;;7.30;5.13;;;;;;;6.37;43.58;103613.38;4922531;29;20046;-71
2022/03/19 13:06:41;;;;;;;11.02;5.25;;;;;;;5.63;44.54;103601.16;4908308;29;20020;-74
2022/03/19 13:09:42;;;;;;;9.13;5.15;;;;;;;5.98;45.01;103609.84;4922478;29;20441;-72
2022/03/19 13:12:28;;;;;;;24.00;12.88;;;;;;;5.94;45.63;103612.25;4922626;28;20028;-72
2022/03/19 13:15:16;;;;;;;7.20;4.90;;;;;;;5.96;44.34;103605.38;4921847;29;20115;-72